Time;durP1;ratioP1;P1;durP2;ratioP2;P2;SDS_P1;SDS_P2;PMS_P1;PMS_P2;Temp;Humidity;BMP_temperature;BMP_pressure;BME280_temperature;BME280_humidity;BME280_pressure;Samples;Min_cycle;Max_cycle;Signal;HPM_P1;HPM_P2
2022/05/22 00:00:58;;;;;;;17.98;7.80;;;17.60;99.90;;;;;;5050445;28;20396;-60
2022/05/22 00:04:03;;;;;;;18.88;8.15;;;17.60;99.90;;;;;;5050465;28;20055;-58
2022/05/22 00:07:08;;;;;;;12.57;7.53;;;17.60;99.90;;;;;;5049743;28;20067;-58
2022/05/22 00:10:13;;;;;;;20.08;8.10;;;17.60;99.90;;;;;;5050436;28;20313;-61
2022/05/22 00:13:17;;;;;;;14.27;8.38;;;17.60;99.90;;;;;;5050390;28;20044;-56
2022/05/22 00:16:36;;;;;;;17.25;8.00;;;17.50;99.90;;;;;;5049822;28;20075;-59
2022/05/22 00:19:43;;;;;;;17.83;7.63;;;17.50;99.90;;;;;;5050361;28;20044;-59
2022/05/22 00:22:47;;;;;;;21.52;8.52;;;17.50;99.90;;;;;;5050232;28;20051;-59
2022/05/22 00:25:55;;;;;;;18.10;9.18;;;17.40;99.90;;;;;;5049822;28;20039;-60
2022/05/22 00:29:00;;;;;;;22.67;7.75;;;17.40;99.90;;;;;;5050284;28;20416;-58
2022/05/22 00:32:07;;;;;;;12.85;7.85;;;17.40;99.90;;;;;;5050107;28;20321;-58
2022/05/22 00:35:11;;;;;;;14.00;7.85;;;17.40;99.90;;;;;;5049820;28;20048;-59
2022/05/22 00:38:16;;;;;;;14.27;8.20;;;17.40;99.90;;;;;;5048702;28;20051;-57
2022/05/22 00:41:20;;;;;;;16.48;8.32;;;17.40;99.90;;;;;;5049286;28;20044;-58
2022/05/22 00:44:25;;;;;;;21.65;8.50;;;17.30;99.90;;;;;;5049957;28;20334;-56
2022/05/22 00:47:29;;;;;;;18.52;10.02;;;17.30;99.90;;;;;;5049185;28;20044;-59
2022/05/22 00:50:33;;;;;;;19.60;8.55;;;17.30;99.90;;;;;;5049681;28;20400;-57
2022/05/22 00:53:41;;;;;;;17.15;8.88;;;17.30;99.90;;;;;;5048774;28;20059;-57
2022/05/22 00:57:13;;;;;;;15.88;8.60;;;17.30;99.90;;;;;;5049238;28;20040;-59
2022/05/22 01:00:21;;;;;;;15.48;8.77;;;17.20;99.90;;;;;;5048783;28;20514;-59
2022/05/22 01:03:31;;;;;;;20.52;8.80;;;17.20;99.90;;;;;;5049587;28;20052;-58
2022/05/22 01:06:36;;;;;;;18.42;8.40;;;17.20;99.90;;;;;;5049107;28;20040;-58
2022/05/22 01:09:48;;;;;;;19.98;10.57;;;17.10;99.90;;;;;;5048926;28;20112;-58
2022/05/22 01:12:52;;;;;;;18.48;9.95;;;17.10;99.90;;;;;;5048456;28;20044;-58
2022/05/22 01:15:59;;;;;;;17.67;9.35;;;17.10;99.90;;;;;;5049424;28;20048;-58
2022/05/22 01:19:13;;;;;;;14.68;9.57;;;17.00;99.90;;;;;;5048582;28;20056;-58
2022/05/22 01:22:17;;;;;;;18.20;10.25;;;17.10;99.90;;;;;;5048554;28;20420;-59
2022/05/22 01:25:21;;;;;;;18.25;9.27;;;17.00;99.90;;;;;;5047968;28;20396;-59
2022/05/22 01:28:26;;;;;;;20.45;10.15;;;17.00;99.90;;;;;;5048441;28;20047;-58
2022/05/22 01:31:32;;;;;;;18.48;9.50;;;16.90;99.90;;;;;;5048749;28;20048;-59
2022/05/22 01:34:39;;;;;;;19.70;9.55;;;16.90;99.90;;;;;;5048895;28;20068;-55
2022/05/22 01:37:44;;;;;;;30.73;9.88;;;16.90;99.90;;;;;;5048372;28;20056;-56
2022/05/22 01:40:50;;;;;;;18.73;8.23;;;16.90;99.90;;;;;;5048412;28;20052;-58
2022/05/22 01:44:05;;;;;;;13.07;7.70;;;16.80;99.90;;;;;;5048323;28;20052;-59
2022/05/22 01:47:10;;;;;;;14.25;8.15;;;16.80;99.90;;;;;;5048237;28;20044;-59
2022/05/22 01:50:16;;;;;;;22.50;8.35;;;16.80;99.90;;;;;;5049068;28;20390;-55
2022/05/22 01:53:24;;;;;;;15.30;7.68;;;16.70;99.90;;;;;;5050807;28;20048;-58
2022/05/22 01:56:29;;;;;;;20.33;8.15;;;16.70;99.90;;;;;;5052086;28;20052;-59
2022/05/22 01:59:33;;;;;;;15.05;7.90;;;16.60;99.90;;;;;;5052123;28;20052;-58
2022/05/22 02:02:55;;;;;;;19.75;9.15;;;16.50;99.90;;;;;;5051784;28;20047;-59
2022/05/22 02:06:07;;;;;;;21.95;8.98;;;16.50;99.90;;;;;;5051370;28;20049;-59
2022/05/22 02:09:12;;;;;;;15.32;7.47;;;16.50;99.90;;;;;;5051835;28;20040;-58
2022/05/22 02:12:25;;;;;;;15.15;9.32;;;16.40;99.90;;;;;;5040295;28;20039;-58
2022/05/22 02:15:29;;;;;;;16.75;9.32;;;16.40;99.90;;;;;;5052499;28;20048;-60
2022/05/22 02:18:34;;;;;;;18.10;10.27;;;16.40;99.90;;;;;;5051727;28;20411;-57
2022/05/22 02:21:38;;;;;;;15.43;9.20;;;16.50;99.90;;;;;;5051296;28;20040;-58
2022/05/22 02:24:42;;;;;;;15.63;9.00;;;16.40;99.90;;;;;;5050797;28;20047;-60
2022/05/22 02:27:50;;;;;;;18.33;10.07;;;16.40;99.90;;;;;;5051002;28;20056;-58
2022/05/22 02:30:59;;;;;;;20.67;10.50;;;16.40;99.90;;;;;;5051496;28;20056;-56
2022/05/22 02:34:03;;;;;;;13.50;7.93;;;16.30;99.90;;;;;;5051244;28;20052;-58
2022/05/22 02:37:07;;;;;;;17.40;8.52;;;16.20;99.90;;;;;;5051130;28;20036;-59
2022/05/22 02:40:12;;;;;;;14.00;8.18;;;16.20;99.90;;;;;;5051161;28;20051;-59
2022/05/22 02:43:26;;;;;;;16.70;7.18;;;16.30;99.90;;;;;;5050648;28;20031;-59
2022/05/22 02:46:34;;;;;;;21.33;7.20;;;16.20;99.90;;;;;;5050847;28;20044;-59
2022/05/22 02:49:39;;;;;;;12.15;5.55;;;16.20;99.90;;;;;;5051115;28;20419;-58
2022/05/22 02:52:47;;;;;;;13.63;6.03;;;16.20;99.90;;;;;;5050919;28;20044;-59
2022/05/22 02:55:52;;;;;;;8.43;5.50;;;16.20;99.90;;;;;;5050903;28;20426;-58
2022/05/22 02:58:56;;;;;;;12.27;6.20;;;16.20;99.90;;;;;;5051943;28;20262;-59
2022/05/22 03:02:01;;;;;;;8.73;4.97;;;16.10;99.90;;;;;;5051086;28;20051;-60
2022/05/22 03:05:07;;;;;;;12.10;6.32;;;16.10;99.90;;;;;;5050036;28;20524;-59
2022/05/22 03:08:12;;;;;;;20.13;7.88;;;16.10;99.90;;;;;;5050496;28;20538;-58
2022/05/22 03:11:18;;;;;;;14.25;5.93;;;16.10;99.90;;;;;;5050939;28;20044;-59
2022/05/22 03:14:23;;;;;;;14.43;6.07;;;16.10;99.90;;;;;;5051638;28;20044;-57
2022/05/22 03:17:30;;;;;;;10.70;5.45;;;16.10;99.90;;;;;;5050322;28;20044;-59
2022/05/22 03:20:36;;;;;;;13.35;5.05;;;16.10;99.90;;;;;;5050675;28;20071;-56
2022/05/22 03:23:41;;;;;;;8.75;4.82;;;16.10;99.90;;;;;;5050529;28;20044;-58
2022/05/22 03:26:45;;;;;;;14.18;5.22;;;16.00;99.90;;;;;;5050272;28;20037;-58
2022/05/22 03:29:50;;;;;;;10.50;4.93;;;15.90;99.90;;;;;;5050738;28;20055;-58
2022/05/22 03:32:54;;;;;;;11.77;5.22;;;15.90;99.90;;;;;;5050726;28;20036;-58
2022/05/22 03:35:58;;;;;;;7.07;4.38;;;15.80;99.90;;;;;;5050258;28;20048;-58
2022/05/22 03:39:02;;;;;;;9.82;4.85;;;15.60;99.90;;;;;;5050499;28;20053;-58
2022/05/22 03:42:06;;;;;;;21.45;7.13;;;15.50;99.90;;;;;;5050424;28;20408;-59
2022/05/22 03:45:12;;;;;;;15.18;5.70;;;15.40;99.90;;;;;;5050159;28;20044;-58
2022/05/22 03:48:19;;;;;;;16.35;8.60;;;15.20;99.90;;;;;;5049781;28;20055;-57
2022/05/22 03:51:25;;;;;;;11.63;6.30;;;15.20;99.90;;;;;;5050241;28;20064;-55
2022/05/22 03:54:30;;;;;;;13.73;8.82;;;15.10;99.90;;;;;;5049970;28;20039;-59
2022/05/22 03:57:38;;;;;;;22.98;10.15;;;15.10;99.90;;;;;;5049763;28;20055;-60
2022/05/22 04:00:42;;;;;;;21.48;10.05;;;15.10;99.90;;;;;;5050074;28;20052;-57
2022/05/22 04:03:46;;;;;;;19.17;10.02;;;15.10;99.90;;;;;;5050128;28;20067;-59
2022/05/22 04:06:51;;;;;;;24.90;10.20;;;15.00;99.90;;;;;;5050232;28;20519;-55
2022/05/22 04:10:00;;;;;;;15.60;8.50;;;15.00;99.90;;;;;;5049553;28;20051;-59
2022/05/22 04:13:12;;;;;;;16.92;9.23;;;14.90;99.90;;;;;;5038004;28;20040;-58
2022/05/22 04:16:16;;;;;;;22.77;9.93;;;15.00;99.90;;;;;;5048370;28;20519;-58
2022/05/22 04:19:20;;;;;;;20.58;9.90;;;15.10;99.90;;;;;;5049480;28;20035;-57
2022/05/22 04:22:24;;;;;;;14.48;8.77;;;15.20;99.90;;;;;;5049405;28;20040;-58
2022/05/22 04:25:30;;;;;;;16.05;10.00;;;15.40;99.90;;;;;;5048723;28;20048;-59
2022/05/22 04:28:35;;;;;;;16.60;9.57;;;15.60;99.90;;;;;;5049034;28;20052;-59
2022/05/22 04:31:49;;;;;;;16.15;9.38;;;15.80;99.90;;;;;;5049281;28;20048;-59
2022/05/22 04:35:00;;;;;;;13.95;8.07;;;16.10;99.90;;;;;;5049022;28;20041;-55
2022/05/22 04:38:06;;;;;;;18.50;7.75;;;16.40;99.90;;;;;;5037887;28;20526;-56
2022/05/22 04:41:11;;;;;;;15.52;8.60;;;17.20;99.90;;;;;;5049151;28;20044;-57
2022/05/22 04:44:15;;;;;;;13.32;7.25;;;18.40;99.90;;;;;;5049046;28;20044;-59
2022/05/22 04:47:20;;;;;;;11.48;6.38;;;19.50;99.90;;;;;;5048424;28;20048;-59
2022/05/22 04:50:49;;;;;;;17.08;6.35;;;20.30;99.90;;;;;;5049996;28;20044;-59
2022/05/22 04:53:53;;;;;;;13.23;5.85;;;21.10;99.90;;;;;;5049853;28;20036;-59
2022/05/22 04:57:35;;;;;;;;;;;21.30;99.90;;;;;;5049905;28;20051;-58
2022/05/22 05:00:40;;;;;;;10.45;5.88;;;22.10;99.90;;;;;;5048982;28;19915;-59
2022/05/22 05:03:49;;;;;;;10.95;6.07;;;22.60;99.90;;;;;;5048780;28;20044;-59
2022/05/22 05:06:54;;;;;;;10.73;5.97;;;23.10;99.90;;;;;;5048715;28;20530;-58
2022/05/22 05:10:24;;;;;;;14.80;6.00;;;23.40;99.90;;;;;;5049597;28;20040;-59
2022/05/22 05:13:37;;;;;;;10.70;5.32;;;24.00;99.90;;;;;;5049137;28;20451;-56
2022/05/22 05:16:41;;;;;;;16.98;5.57;;;24.60;99.90;;;;;;5048572;28;20120;-58
2022/05/22 05:19:49;;;;;;;11.82;5.57;;;25.00;99.90;;;;;;5048714;28;20408;-58
2022/05/22 05:22:54;;;;;;;14.75;5.38;;;24.50;99.90;;;;;;5048962;28;20052;-59
2022/05/22 05:26:10;;;;;;;16.15;6.15;;;24.10;99.90;;;;;;5048069;28;20036;-57
2022/05/22 05:29:14;;;;;;;10.65;5.28;;;25.00;99.90;;;;;;5052293;28;20051;-59
2022/05/22 05:32:22;;;;;;;9.68;5.03;;;25.80;99.90;;;;;;5052680;28;20044;-59
2022/05/22 05:35:26;;;;;;;13.43;5.38;;;26.00;99.90;;;;;;5052279;28;20045;-60
2022/05/22 05:38:32;;;;;;;10.75;5.57;;;24.90;99.90;;;;;;5052440;28;20506;-61
2022/05/22 05:41:39;;;;;;;14.63;5.57;;;24.90;99.90;;;;;;5052482;28;20044;-58
2022/05/22 05:44:44;;;;;;;12.90;5.40;;;25.40;99.90;;;;;;5052476;28;20507;-57
2022/05/22 05:47:53;;;;;;;12.02;4.60;;;25.00;99.90;;;;;;5051952;28;20048;-59
2022/05/22 05:51:18;;;;;;;12.60;5.22;;;24.80;99.90;;;;;;5053359;28;20048;-59
2022/05/22 05:54:30;;;;;;;9.70;5.10;;;24.60;99.90;;;;;;5052042;28;20043;-59
2022/05/22 05:58:00;;;;;;;11.15;4.55;;;24.90;99.90;;;;;;5052566;28;20516;-58
2022/05/22 06:01:05;;;;;;;12.00;5.68;;;24.50;99.90;;;;;;5052173;28;20059;-60
2022/05/22 06:04:13;;;;;;;12.90;5.30;;;23.00;99.90;;;;;;5051949;28;20055;-59
2022/05/22 06:07:18;;;;;;;10.43;5.38;;;22.80;99.90;;;;;;5051171;28;20439;-59
2022/05/22 06:10:23;;;;;;;10.38;4.85;;;22.20;99.90;;;;;;5052667;28;20404;-60
2022/05/22 06:13:43;;;;;;;12.57;5.70;;;22.20;99.90;;;;;;5051939;28;20039;-58
2022/05/22 06:16:47;;;;;;;12.18;6.15;;;22.40;99.90;;;;;;5051300;28;20060;-59
2022/05/22 06:19:54;;;;;;;9.98;4.70;;;22.10;99.90;;;;;;5051755;28;20043;-60
2022/05/22 06:22:58;;;;;;;10.27;5.30;;;23.50;99.90;;;;;;5051665;28;20032;-60
2022/05/22 06:26:21;;;;;;;10.20;4.68;;;24.70;99.90;;;;;;5051403;28;20487;-59
2022/05/22 06:29:45;;;;;;;9.98;4.50;;;24.80;99.90;;;;;;5052633;28;20048;-58
2022/05/22 06:33:09;;;;;;;11.15;4.88;;;25.00;99.90;;;;;;5051532;28;20041;-57
2022/05/22 06:36:51;;;;;;;14.82;4.78;;;25.30;99.90;;;;;;5048843;28;20036;-60
2022/05/22 06:40:30;;;;;;;10.68;4.38;;;24.70;99.90;;;;;;5049846;28;20295;-57
2022/05/22 06:43:57;;;;;;;14.05;5.30;;;24.80;99.90;;;;;;5052033;28;20329;-59
2022/05/22 06:47:22;;;;;;;13.88;4.22;;;24.80;99.90;;;;;;5051664;28;20302;-60
2022/05/22 06:51:04;;;;;;;15.90;4.93;;;25.60;99.90;;;;;;5049684;28;20470;-61
2022/05/22 06:54:35;;;;;;;9.55;4.22;;;26.10;99.90;;;;;;5045819;28;20047;-61
2022/05/22 06:58:12;;;;;;;10.93;4.47;;;26.80;99.90;;;;;;5050470;28;20025;-60
2022/05/22 07:01:38;;;;;;;11.35;4.07;;;25.90;99.90;;;;;;5051896;28;20404;-59
2022/05/22 07:05:11;;;;;;;17.77;3.70;;;27.80;99.90;;;;;;5050864;28;20047;-61
2022/05/22 07:08:32;;;;;;;8.73;3.47;;;28.70;99.90;;;;;;5050496;28;20048;-59
2022/05/22 07:11:55;;;;;;;9.27;3.97;;;27.70;99.90;;;;;;5051825;28;20401;-61
2022/05/22 07:15:35;;;;;;;10.15;4.13;;;26.50;99.90;;;;;;5052033;28;20044;-58
2022/05/22 07:18:57;;;;;;;14.73;4.50;;;28.00;99.90;;;;;;5051406;28;20040;-58
2022/05/22 07:22:19;;;;;;;;;;;26.60;99.90;;;;;;5051208;28;20039;-60
2022/05/22 07:25:31;;;;;;;13.20;4.00;;;27.10;99.90;;;;;;5038411;28;20272;-56
2022/05/22 07:28:53;;;;;;;8.82;3.50;;;27.30;99.90;;;;;;5049978;28;20044;-60
2022/05/22 07:32:28;;;;;;;8.90;3.17;;;29.60;98.90;;;;;;5051217;28;20053;-58
2022/05/22 07:35:55;;;;;;;7.85;2.85;;;30.30;97.30;;;;;;5050669;28;20669;-57
2022/05/22 07:39:18;;;;;;;11.07;3.60;;;31.90;96.00;;;;;;5051016;28;20045;-59
2022/05/22 07:42:45;;;;;;;8.32;3.00;;;31.80;94.60;;;;;;5050649;28;20056;-59
2022/05/22 07:46:09;;;;;;;6.43;3.00;;;33.20;93.90;;;;;;5050559;28;20455;-59
2022/05/22 07:53:05;;;;;;;8.25;3.28;;;35.20;90.80;;;;;;5050459;28;20491;-58
2022/05/22 07:56:16;;;;;;;7.13;2.83;;;35.70;89.30;;;;;;5050293;28;20033;-57
2022/05/22 07:59:40;;;;;;;5.03;2.35;;;35.70;88.00;;;;;;5050551;28;20036;-59
2022/05/22 08:03:13;;;;;;;8.10;2.20;;;36.50;87.00;;;;;;5050547;28;20044;-58
2022/05/22 08:06:18;;;;;;;9.93;2.83;;;37.00;83.80;;;;;;5049284;28;20033;-56
2022/05/22 08:09:22;;;;;;;7.95;3.13;;;37.20;82.10;;;;;;5051030;28;20064;-58
2022/05/22 08:12:27;;;;;;;6.05;2.33;;;38.00;81.20;;;;;;5049337;28;20534;-59
2022/05/22 08:15:45;;;;;;;6.35;2.78;;;38.40;79.40;;;;;;5037942;28;20041;-57
2022/05/22 08:19:03;;;;;;;9.45;2.75;;;37.30;77.50;;;;;;5049461;28;20033;-59
2022/05/22 08:22:08;;;;;;;6.93;2.85;;;36.50;77.20;;;;;;5049802;28;20044;-57
2022/05/22 08:25:51;;;;;;;9.52;2.97;;;32.70;82.60;;;;;;5049502;28;20515;-60
2022/05/22 08:28:58;;;;;;;7.80;2.92;;;32.70;84.60;;;;;;5048950;28;20412;-58
2022/05/22 08:32:04;;;;;;;11.90;2.70;;;30.50;86.60;;;;;;5049157;28;20048;-59
2022/05/22 08:35:12;;;;;;;7.03;2.97;;;33.20;84.80;;;;;;5049760;28;20124;-58
2022/05/22 08:38:16;;;;;;;8.32;2.63;;;35.90;81.90;;;;;;5042245;22;20515;-69
2022/05/22 08:41:33;;;;;;;6.28;2.28;;;37.20;78.30;;;;;;5027926;28;20637;-69
2022/05/22 08:44:41;;;;;;;7.50;2.20;;;36.10;78.70;;;;;;5023738;28;20672;-69
2022/05/22 08:47:57;;;;;;;5.30;2.55;;;37.00;77.70;;;;;;5027831;28;20046;-69
2022/05/22 08:51:04;;;;;;;4.53;1.67;;;36.90;73.30;;;;;;5031195;28;20041;-69
2022/05/22 08:54:30;;;;;;;8.35;2.40;;;36.90;71.60;;;;;;5031077;28;20052;-69
2022/05/22 09:01:42;;;;;;;5.22;1.88;;;37.70;70.30;;;;;;5029937;28;20049;-69
2022/05/22 09:04:52;;;;;;;5.95;1.88;;;38.10;71.20;;;;;;5031321;28;20491;-69
2022/05/22 09:08:42;;;;;;;3.85;1.85;;;39.80;70.70;;;;;;5030369;28;20052;-69
2022/05/22 09:12:09;;;;;;;8.20;1.88;;;41.20;69.60;;;;;;5031581;28;20060;-69
2022/05/22 09:15:35;;;;;;;10.27;2.10;;;39.00;68.00;;;;;;5031984;28;20491;-70
2022/05/22 09:18:51;;;;;;;6.35;2.17;;;39.50;66.20;;;;;;5030588;28;20060;-69
2022/05/22 09:22:17;;;;;;;7.43;2.20;;;38.50;66.60;;;;;;5031047;28;20041;-69
2022/05/22 09:25:43;;;;;;;4.93;1.70;;;40.10;65.60;;;;;;5030668;28;20048;-68
2022/05/22 09:29:08;;;;;;;5.90;2.05;;;41.90;65.80;;;;;;5030096;28;20045;-69
2022/05/22 09:32:25;;;;;;;5.07;1.45;;;42.20;64.80;;;;;;5030544;28;20038;-69
2022/05/22 09:35:56;;;;;;;4.55;2.08;;;42.90;62.80;;;;;;5028010;28;20050;-70
2022/05/22 09:39:45;;;;;;;7.00;1.80;;;42.30;62.70;;;;;;5010487;28;20044;-70
2022/05/22 09:43:01;;;;;;;4.65;1.50;;;42.50;60.40;;;;;;5030371;28;20397;-70
2022/05/22 09:46:36;;;;;;;3.95;1.65;;;40.90;57.90;;;;;;5030210;28;20042;-69
2022/05/22 09:50:01;;;;;;;5.78;2.00;;;37.80;62.60;;;;;;5019233;28;20048;-69
2022/05/22 09:53:18;;;;;;;6.47;1.73;;;39.00;64.20;;;;;;5010364;28;20046;-69
2022/05/22 09:56:36;;;;;;;5.70;2.05;;;41.70;61.30;;;;;;5009820;28;20065;-69
2022/05/22 09:59:46;;;;;;;9.25;2.00;;;43.20;61.80;;;;;;5010110;28;20046;-70
2022/05/22 10:03:03;;;;;;;3.67;1.70;;;42.20;59.30;;;;;;5010341;28;20053;-70
2022/05/22 10:06:07;;;;;;;5.18;1.63;;;42.40;60.60;;;;;;5009566;28;20042;-69
2022/05/22 10:09:33;;;;;;;4.90;1.92;;;41.30;60.50;;;;;;5009379;28;20485;-69
2022/05/22 10:12:47;;;;;;;2.65;1.60;;;42.40;59.90;;;;;;5010034;28;20037;-69
2022/05/22 10:16:19;;;;;;;6.53;1.70;;;42.60;58.50;;;;;;5013170;28;20058;-70
2022/05/22 10:19:48;;;;;;;19.70;2.38;;;43.00;57.70;;;;;;5013202;28;20072;-69
2022/05/22 10:23:31;;;;;;;7.28;1.70;;;43.40;57.50;;;;;;5013422;28;20405;-70
2022/05/22 10:26:41;;;;;;;4.22;1.52;;;44.00;57.60;;;;;;5012624;28;20614;-70
2022/05/22 10:29:48;;;;;;;;;;;44.70;58.80;;;;;;5013518;28;20057;-69
2022/05/22 10:32:59;;;;;;;5.45;1.80;;;44.60;57.00;;;;;;5013067;28;19932;-70
2022/05/22 10:36:40;;;;;;;7.30;2.00;;;44.80;56.20;;;;;;5013124;28;20061;-69
2022/05/22 10:39:43;;;;;;;4.65;2.40;;;44.20;57.30;;;;;;5017455;28;20048;-69
2022/05/22 10:42:52;;;;;;;3.97;1.80;;;43.80;57.00;;;;;;5013136;28;20049;-69
2022/05/22 10:45:57;;;;;;;3.83;1.50;;;43.10;57.30;;;;;;5013326;28;20042;-70
2022/05/22 10:49:01;;;;;;;4.13;1.65;;;42.70;56.20;;;;;;5012615;28;20034;-69
2022/05/22 10:52:06;;;;;;;11.10;1.95;;;40.40;56.80;;;;;;5011857;28;20037;-69
2022/05/22 10:55:26;;;;;;;7.60;1.85;;;41.80;57.90;;;;;;5012748;28;20503;-69
2022/05/22 10:58:32;;;;;;;6.20;1.90;;;42.10;57.60;;;;;;5012235;28;20042;-70
2022/05/22 11:01:39;;;;;;;4.75;1.60;;;42.80;55.90;;;;;;5012519;28;20037;-69
2022/05/22 11:04:44;;;;;;;5.68;1.70;;;41.20;57.40;;;;;;5012597;28;20037;-69
2022/05/22 11:07:51;;;;;;;6.35;1.98;;;41.50;56.00;;;;;;5012021;28;20333;-69
2022/05/22 11:11:00;;;;;;;6.25;2.15;;;42.20;56.30;;;;;;5012482;28;20482;-70
2022/05/22 11:14:09;;;;;;;6.73;1.80;;;42.90;56.90;;;;;;5012808;28;20034;-70
2022/05/22 11:17:16;;;;;;;5.47;1.55;;;43.10;55.20;;;;;;5012227;28;20401;-69
2022/05/22 11:20:24;;;;;;;5.70;1.70;;;43.90;56.40;;;;;;5012457;28;20353;-70
2022/05/22 11:23:54;;;;;;;3.03;1.63;;;43.40;55.90;;;;;;5012405;28;20045;-70
2022/05/22 11:27:13;;;;;;;;;;;42.90;55.90;;;;;;5012726;28;20049;-70
2022/05/22 11:30:26;;;;;;;4.97;1.73;;;43.10;57.80;;;;;;5012338;28;19944;-70
2022/05/22 11:34:13;;;;;;;4.30;1.70;;;42.70;56.70;;;;;;5012303;28;20319;-70
2022/05/22 11:37:43;;;;;;;4.93;2.28;;;42.60;57.30;;;;;;5011572;28;20042;-70
2022/05/22 11:40:49;;;;;;;2.75;1.77;;;42.30;57.40;;;;;;5011826;28;20036;-70
2022/05/22 11:44:00;;;;;;;3.97;2.00;;;41.00;57.80;;;;;;5011929;28;20049;-69
2022/05/22 11:47:13;;;;;;;3.33;1.60;;;32.80;60.30;;;;;;5011422;28;20057;-70
2022/05/22 11:50:43;;;;;;;4.65;1.67;;;31.70;62.30;;;;;;5011623;28;20046;-70
2022/05/22 11:54:07;;;;;;;5.45;1.50;;;33.30;61.20;;;;;;5011871;28;20047;-69
2022/05/22 11:57:29;;;;;;;3.47;1.40;;;34.50;60.50;;;;;;5011230;28;20038;-68
2022/05/22 12:01:00;;;;;;;3.10;1.40;;;34.00;61.10;;;;;;5011518;28;20038;-69
2022/05/22 12:04:44;;;;;;;3.97;1.70;;;34.90;58.80;;;;;;5011620;28;20500;-69
2022/05/22 12:08:40;;;;;;;3.00;1.40;;;33.60;58.90;;;;;;5010998;28;20050;-69
2022/05/22 12:12:30;;;;;;;7.55;1.90;;;34.40;60.30;;;;;;5026980;28;20048;-69
2022/05/22 12:15:40;;;;;;;5.95;1.70;;;34.30;60.00;;;;;;5011143;28;20041;-69
2022/05/22 12:19:12;;;;;;;4.53;2.17;;;34.00;62.40;;;;;;5011165;28;20514;-69
2022/05/22 12:22:20;;;;;;;6.32;1.65;;;33.80;61.60;;;;;;5011281;28;20042;-69
2022/05/22 12:25:29;;;;;;;7.78;2.00;;;33.80;60.70;;;;;;5010864;28;20048;-69
2022/05/22 12:28:57;;;;;;;6.35;2.00;;;33.80;60.50;;;;;;5011134;28;20042;-68
2022/05/22 12:32:18;;;;;;;5.57;1.77;;;33.90;60.50;;;;;;5010889;28;20125;-68
2022/05/22 12:35:25;;;;;;;5.63;1.80;;;34.60;61.70;;;;;;5011125;28;20373;-68
2022/05/22 12:38:29;;;;;;;6.72;1.70;;;35.30;60.20;;;;;;5021166;28;20042;-69
2022/05/22 12:42:03;;;;;;;6.05;2.00;;;32.80;59.50;;;;;;5010823;28;20050;-68
2022/05/22 12:45:07;;;;;;;3.05;1.45;;;33.80;62.20;;;;;;5010864;28;20377;-68
2022/05/22 12:48:44;;;;;;;9.02;2.03;;;34.60;60.70;;;;;;5010440;28;20046;-71
2022/05/22 12:51:59;;;;;;;6.05;1.70;;;35.40;61.00;;;;;;5015479;28;20030;-71
2022/05/22 12:55:07;;;;;;;7.53;2.17;;;35.40;60.30;;;;;;5010863;28;20032;-68
2022/05/22 12:58:28;;;;;;;3.90;1.92;;;36.00;61.60;;;;;;5010320;28;20052;-68
2022/05/22 13:01:33;;;;;;;;;;;35.80;60.40;;;;;;5010622;28;20038;-71
2022/05/22 13:04:52;;;;;;;5.15;1.90;;;35.60;62.60;;;;;;5010391;28;19932;-71
2022/05/22 13:07:58;;;;;;;4.60;1.85;;;32.80;64.90;;;;;;5009927;28;20049;-72
2022/05/22 13:11:12;;;;;;;4.50;2.00;;;32.60;63.10;;;;;;5010511;28;20038;-71
2022/05/22 13:14:26;;;;;;;6.22;1.98;;;32.40;64.30;;;;;;5010927;28;20045;-70
2022/05/22 13:17:33;;;;;;;3.20;1.83;;;32.90;63.80;;;;;;5010356;28;20386;-71
2022/05/22 13:20:37;;;;;;;6.25;2.15;;;33.10;63.60;;;;;;5010300;28;20034;-71
2022/05/22 13:23:42;;;;;;;5.13;2.20;;;33.60;64.80;;;;;;5010431;28;20045;-71
2022/05/22 13:26:57;;;;;;;8.57;2.22;;;33.90;63.50;;;;;;5009987;28;20041;-71
2022/05/22 13:30:26;;;;;;;11.02;2.25;;;33.50;63.20;;;;;;5009977;28;20386;-70
2022/05/22 13:33:32;;;;;;;4.05;1.42;;;34.20;64.20;;;;;;5010593;28;20045;-70
2022/05/22 13:36:53;;;;;;;8.68;1.95;;;34.70;62.10;;;;;;5009666;28;20050;-71
2022/05/22 13:40:03;;;;;;;7.35;1.55;;;35.20;61.30;;;;;;5010271;28;20049;-70
2022/05/22 13:43:44;;;;;;;4.57;1.77;;;35.00;60.00;;;;;;5009976;28;20041;-71
2022/05/22 13:47:35;;;;;;;6.05;1.83;;;34.80;61.10;;;;;;5008708;28;20520;-71
2022/05/22 13:54:18;;;;;;;5.70;1.70;;;34.40;61.10;;;;;;5014118;28;20049;-70
2022/05/22 13:57:30;;;;;;;3.83;1.55;;;34.50;61.10;;;;;;5013805;28;20034;-70
2022/05/22 14:00:40;;;;;;;4.25;1.80;;;34.50;61.90;;;;;;5013818;28;20049;-70
2022/05/22 14:03:53;;;;;;;4.90;2.35;;;34.40;61.30;;;;;;5013911;28;20049;-70
2022/05/22 14:07:05;;;;;;;3.88;1.48;;;34.10;63.90;;;;;;5013631;28;20042;-70
2022/05/22 14:10:10;;;;;;;8.68;2.00;;;33.70;65.70;;;;;;5013139;28;20552;-69
2022/05/22 14:13:20;;;;;;;4.78;1.90;;;33.50;65.70;;;;;;5013718;28;20046;-70
2022/05/22 14:16:27;;;;;;;4.82;2.15;;;33.70;64.10;;;;;;5013029;28;20030;-70
2022/05/22 14:19:40;;;;;;;4.90;2.05;;;33.90;65.20;;;;;;5013442;28;20500;-69
2022/05/22 14:22:51;;;;;;;8.88;2.55;;;34.00;65.00;;;;;;5013369;28;20384;-70
2022/05/22 14:25:58;;;;;;;4.55;2.15;;;34.10;66.50;;;;;;5013206;28;20038;-70
2022/05/22 14:29:07;;;;;;;3.20;2.00;;;34.00;65.10;;;;;;5013109;28;20342;-69
2022/05/22 14:32:22;;;;;;;5.72;1.90;;;33.90;66.40;;;;;;5013150;28;20041;-69
2022/05/22 14:35:34;;;;;;;8.27;2.45;;;33.70;66.00;;;;;;5012875;28;20520;-69
2022/05/22 14:38:45;;;;;;;7.03;1.98;;;33.50;64.50;;;;;;5011700;28;20389;-70
2022/05/22 14:41:49;;;;;;;7.77;1.90;;;33.30;66.90;;;;;;5013020;28;20049;-70
2022/05/22 14:45:18;;;;;;;4.05;2.20;;;33.40;66.60;;;;;;5013148;28;20042;-70
2022/05/22 14:48:29;;;;;;;7.25;2.15;;;33.40;67.90;;;;;;5012418;28;20042;-70
2022/05/22 14:52:26;;;;;;;10.93;2.00;;;33.30;68.30;;;;;;5013239;28;20389;-70
2022/05/22 14:55:39;;;;;;;8.25;1.75;;;33.00;68.00;;;;;;5012524;28;20053;-70
2022/05/22 14:59:04;;;;;;;5.20;1.88;;;33.30;69.40;;;;;;5012525;28;20042;-70
2022/05/22 15:02:16;;;;;;;8.70;2.25;;;33.30;69.40;;;;;;5012737;28;20033;-69
2022/05/22 15:05:24;;;;;;;6.32;1.98;;;33.40;70.20;;;;;;5012728;28;20038;-70
2022/05/22 15:08:32;;;;;;;6.57;2.10;;;33.40;69.40;;;;;;5012475;28;20508;-70
2022/05/22 15:11:45;;;;;;;5.40;1.73;;;33.00;68.50;;;;;;5012517;28;20029;-70
2022/05/22 15:14:51;;;;;;;4.72;1.80;;;32.90;69.70;;;;;;5012486;28;20044;-70
2022/05/22 15:19:48;;;;;;;9.25;2.20;;;32.90;71.20;;;;;;5012317;28;20397;-70
2022/05/22 15:25:47;;;;;;;5.47;2.10;;;32.40;69.60;;;;;;5012160;28;20057;-69
2022/05/22 15:28:52;;;;;;;8.95;2.00;;;32.20;70.10;;;;;;5012048;28;20464;-69
2022/05/22 15:32:15;;;;;;;7.78;2.05;;;32.10;72.40;;;;;;5012051;28;20696;-70
2022/05/22 15:35:23;;;;;;;6.20;2.28;;;31.80;71.20;;;;;;5012200;28;20046;-70
2022/05/22 15:38:31;;;;;;;7.53;2.65;;;31.40;71.40;;;;;;5011444;28;20038;-69
2022/05/22 15:41:42;;;;;;;4.25;2.25;;;31.10;72.30;;;;;;5011978;28;20076;-69
2022/05/22 15:44:56;;;;;;;6.17;2.00;;;31.10;73.80;;;;;;5011932;28;20046;-69
2022/05/22 15:51:32;;;;;;;5.55;2.10;;;31.00;75.40;;;;;;5011892;28;20500;-70
2022/05/22 15:54:37;;;;;;;8.70;2.78;;;30.80;74.30;;;;;;5011576;28;20041;-70
2022/05/22 15:57:41;;;;;;;4.13;2.10;;;30.60;73.90;;;;;;5011065;28;20034;-70
2022/05/22 16:00:45;;;;;;;3.90;1.90;;;30.50;74.10;;;;;;5011586;28;20038;-70
2022/05/22 16:03:52;;;;;;;5.20;1.90;;;30.30;74.50;;;;;;5011522;28;20038;-69
2022/05/22 16:06:56;;;;;;;10.07;2.83;;;30.10;75.50;;;;;;5010991;28;20045;-71
2022/05/22 16:10:01;;;;;;;5.70;2.30;;;29.90;76.10;;;;;;5011331;28;20052;-70
2022/05/22 16:13:05;;;;;;;5.20;2.50;;;29.90;75.80;;;;;;5011035;28;20030;-70
2022/05/22 16:16:23;;;;;;;6.32;2.67;;;29.70;75.60;;;;;;5011161;28;20394;-70
2022/05/22 16:19:38;;;;;;;9.57;2.42;;;29.60;75.80;;;;;;5011250;28;20046;-70
2022/05/22 16:22:42;;;;;;;8.02;2.30;;;29.40;76.20;;;;;;5011317;28;20445;-70
2022/05/22 16:25:47;;;;;;;7.72;2.55;;;29.30;76.30;;;;;;5011025;28;20515;-70
2022/05/22 16:28:51;;;;;;;5.75;2.20;;;29.10;75.90;;;;;;5011314;28;20049;-70
2022/05/22 16:31:58;;;;;;;4.28;2.20;;;28.90;76.60;;;;;;5011450;28;20037;-70
2022/05/22 16:35:04;;;;;;;9.30;2.60;;;28.80;76.80;;;;;;5011371;28;20044;-70
2022/05/22 16:38:08;;;;;;;8.02;2.60;;;28.60;76.70;;;;;;5010412;28;20069;-70
2022/05/22 16:41:13;;;;;;;9.68;2.47;;;28.50;76.20;;;;;;5011028;28;20034;-70
2022/05/22 16:44:17;;;;;;;7.50;2.25;;;28.50;77.20;;;;;;5010011;28;20042;-70
2022/05/22 16:54:09;;;;;;;3.33;2.05;;;28.30;77.20;;;;;;5010316;28;20034;-70
2022/05/22 16:57:14;;;;;;;7.32;2.63;;;28.20;76.40;;;;;;5010106;28;20092;-70
2022/05/22 17:00:18;;;;;;;7.75;2.03;;;28.10;76.80;;;;;;5010517;28;20061;-69
2022/05/22 17:03:28;;;;;;;6.00;2.08;;;28.10;76.80;;;;;;5010293;28;20065;-70
2022/05/22 17:06:36;;;;;;;7.53;2.20;;;28.10;76.30;;;;;;5009758;28;20520;-70